createdAt,value
2023-11-07T00:00:12.635Z,568.00
2023-11-07T00:01:12.700Z,569.00
2023-11-07T00:02:12.707Z,569.00
2023-11-07T00:03:12.754Z,569.00
2023-11-07T00:04:12.660Z,568.00
2023-11-07T00:05:12.898Z,570.00
2023-11-07T00:06:12.711Z,570.00
2023-11-07T00:07:12.632Z,567.00
2023-11-07T00:08:12.529Z,565.00
2023-11-07T00:09:12.568Z,566.00
2023-11-07T00:10:12.533Z,567.00
2023-11-07T00:11:12.579Z,571.00
2023-11-07T00:12:12.689Z,571.00
2023-11-07T00:13:12.513Z,569.00
2023-11-07T00:14:12.589Z,571.00
2023-11-07T00:15:12.524Z,571.00
2023-11-07T00:16:12.393Z,572.00
2023-11-07T00:17:12.415Z,569.00
2023-11-07T00:18:12.459Z,569.00
2023-11-07T00:19:12.564Z,570.00
2023-11-07T00:20:12.335Z,571.00
2023-11-07T00:21:12.433Z,568.00
2023-11-07T00:22:12.318Z,570.00
2023-11-07T00:23:12.347Z,569.00
2023-11-07T00:24:12.300Z,568.00
2023-11-07T00:25:12.360Z,569.00
2023-11-07T00:26:12.260Z,568.00
2023-11-07T00:27:12.281Z,567.00
2023-11-07T00:28:12.236Z,567.00
2023-11-07T00:29:12.292Z,570.00
2023-11-07T00:30:12.241Z,571.00
2023-11-07T00:31:12.365Z,574.00
2023-11-07T00:32:12.183Z,576.00
2023-11-07T00:33:12.393Z,577.00
2023-11-07T00:34:12.213Z,576.00
2023-11-07T00:35:12.226Z,578.00
2023-11-07T00:36:12.153Z,579.00
2023-11-07T00:37:12.165Z,578.00
2023-11-07T00:38:12.114Z,580.00
2023-11-07T00:39:12.163Z,579.00
2023-11-07T00:40:12.084Z,578.00
2023-11-07T00:41:12.202Z,578.00
2023-11-07T00:42:12.069Z,578.00
2023-11-07T00:43:12.088Z,579.00
2023-11-07T00:44:12.017Z,580.00
2023-11-07T00:45:12.118Z,582.00
2023-11-07T00:46:11.989Z,580.00
2023-11-07T00:47:12.017Z,582.00
2023-11-07T00:48:12.129Z,583.00
2023-11-07T00:49:12.205Z,585.00
2023-11-07T00:50:12.090Z,588.00
2023-11-07T00:51:11.960Z,593.00
2023-11-07T00:52:11.941Z,590.00
2023-11-07T00:53:11.956Z,590.00
2023-11-07T00:54:11.918Z,591.00
2023-11-07T00:55:11.968Z,592.00
2023-11-07T00:56:11.867Z,592.00
2023-11-07T00:57:11.897Z,591.00
2023-11-07T00:58:11.828Z,591.00
2023-11-07T00:59:11.901Z,591.00
2023-11-07T01:00:11.845Z,588.00
2023-11-07T01:01:11.807Z,585.00
2023-11-07T01:02:11.781Z,584.00
2023-11-07T01:03:32.921Z,585.00
2023-11-07T01:04:11.898Z,583.00
2023-11-07T01:05:11.917Z,584.00
2023-11-07T01:06:11.899Z,583.00
2023-11-07T01:07:11.855Z,583.00
2023-11-07T01:08:11.699Z,583.00
2023-11-07T01:09:11.760Z,583.00
2023-11-07T01:10:11.679Z,584.00
2023-11-07T01:11:11.780Z,584.00
2023-11-07T01:12:11.667Z,582.00
2023-11-07T01:13:11.733Z,580.00
2023-11-07T01:14:11.627Z,579.00
2023-11-07T01:15:11.703Z,578.00
2023-11-07T01:16:11.625Z,578.00
2023-11-07T01:17:11.626Z,577.00
2023-11-07T01:18:11.636Z,581.00
2023-11-07T01:19:11.788Z,579.00
2023-11-07T01:20:11.554Z,579.00
2023-11-07T01:21:11.567Z,580.00
2023-11-07T01:22:11.524Z,582.00
2023-11-07T01:23:11.570Z,580.00
2023-11-07T01:24:11.507Z,583.00
2023-11-07T01:25:11.588Z,596.00
2023-11-07T01:26:11.456Z,592.00
2023-11-07T01:27:11.481Z,586.00
2023-11-07T01:28:11.434Z,586.00
2023-11-07T01:29:11.498Z,585.00
2023-11-07T01:30:11.429Z,585.00
2023-11-07T01:31:11.420Z,582.00
2023-11-07T01:32:11.387Z,579.00
2023-11-07T01:33:11.578Z,578.00
2023-11-07T01:34:11.470Z,578.00
2023-11-07T01:35:11.446Z,576.00
2023-11-07T01:36:11.358Z,576.00
2023-11-07T01:37:11.362Z,577.00
2023-11-07T01:38:11.303Z,576.00
2023-11-07T01:39:11.425Z,577.00
2023-11-07T01:40:11.275Z,577.00
2023-11-07T01:41:11.443Z,578.00
2023-11-07T01:42:11.274Z,579.00
2023-11-07T01:43:11.312Z,579.00
2023-11-07T01:44:11.228Z,583.00
2023-11-07T01:45:11.372Z,580.00
2023-11-07T01:46:11.217Z,579.00
2023-11-07T01:47:11.224Z,579.00
2023-11-07T01:48:11.262Z,578.00
2023-11-07T01:49:12.301Z,577.00
2023-11-07T01:50:11.153Z,576.00
2023-11-07T01:51:11.162Z,574.00
2023-11-07T01:52:11.115Z,576.00
2023-11-07T01:53:11.167Z,577.00
2023-11-07T01:54:11.117Z,577.00
2023-11-07T01:55:11.181Z,579.00
2023-11-07T01:56:11.068Z,578.00
2023-11-07T01:57:11.099Z,578.00
2023-11-07T01:58:11.058Z,576.00
2023-11-07T01:59:11.108Z,577.00
2023-11-07T02:00:11.035Z,575.00
2023-11-07T02:01:11.020Z,575.00
2023-11-07T02:02:10.995Z,576.00
2023-11-07T02:03:11.139Z,574.00
2023-11-07T02:04:11.156Z,574.00
2023-11-07T02:05:11.176Z,575.00
2023-11-07T02:06:11.002Z,573.00
2023-11-07T02:07:10.978Z,575.00
2023-11-07T02:08:10.910Z,578.00
2023-11-07T02:09:11.012Z,578.00
2023-11-07T02:10:10.882Z,576.00
2023-11-07T02:11:10.890Z,577.00
2023-11-07T02:12:10.883Z,577.00
2023-11-07T02:13:10.903Z,578.00
2023-11-07T02:14:10.844Z,580.00
2023-11-07T02:15:10.939Z,583.00
2023-11-07T02:16:10.800Z,587.00
2023-11-07T02:17:10.834Z,588.00
2023-11-07T02:18:10.891Z,586.00
2023-11-07T02:19:10.864Z,584.00
2023-11-07T02:20:10.752Z,581.00
2023-11-07T02:21:10.906Z,583.00
2023-11-07T02:22:10.744Z,583.00
2023-11-07T02:23:10.787Z,582.00
2023-11-07T02:24:10.786Z,583.00
2023-11-07T02:25:10.785Z,583.00
2023-11-07T02:26:10.667Z,583.00
2023-11-07T02:27:10.701Z,584.00
2023-11-07T02:28:10.641Z,586.00
2023-11-07T02:29:31.796Z,586.00
2023-11-07T02:30:10.668Z,585.00
2023-11-07T02:31:10.630Z,585.00
2023-11-07T02:32:10.589Z,585.00
2023-11-07T02:33:10.724Z,584.00
2023-11-07T02:34:10.731Z,585.00
2023-11-07T02:35:10.598Z,584.00
2023-11-07T02:36:10.637Z,583.00
2023-11-07T02:37:10.562Z,583.00
2023-11-07T02:38:10.512Z,583.00
2023-11-07T02:39:10.616Z,584.00
2023-11-07T02:40:10.511Z,582.00
2023-11-07T02:41:10.542Z,581.00
2023-11-07T02:42:10.483Z,582.00
2023-11-07T02:43:10.517Z,582.00
2023-11-07T02:44:10.455Z,581.00
2023-11-07T02:45:10.563Z,580.00
2023-11-07T02:46:10.407Z,578.00
2023-11-07T02:47:10.489Z,578.00
2023-11-07T02:48:10.505Z,580.00
2023-11-07T02:49:10.502Z,582.00
2023-11-07T02:50:10.343Z,588.00
2023-11-07T02:51:10.407Z,589.00
2023-11-07T02:52:10.333Z,591.00
2023-11-07T02:53:10.433Z,591.00
2023-11-07T02:54:10.342Z,589.00
2023-11-07T02:55:10.390Z,586.00
2023-11-07T02:56:10.261Z,585.00
2023-11-07T02:57:10.335Z,587.00
2023-11-07T02:58:10.238Z,587.00
2023-11-07T02:59:10.278Z,588.00
2023-11-07T03:00:10.221Z,585.00
2023-11-07T03:01:10.253Z,585.00
2023-11-07T03:02:10.189Z,587.00
2023-11-07T03:03:31.330Z,588.00
2023-11-07T03:04:10.218Z,589.00
2023-11-07T03:05:10.206Z,592.00
2023-11-07T03:06:10.216Z,591.00
2023-11-07T03:07:10.186Z,590.00
2023-11-07T03:08:10.106Z,588.00
2023-11-07T03:09:10.220Z,585.00
2023-11-07T03:10:10.142Z,584.00
2023-11-07T03:11:10.214Z,585.00
2023-11-07T03:12:10.090Z,586.00
2023-11-07T03:13:10.127Z,585.00
2023-11-07T03:14:10.034Z,587.00
2023-11-07T03:15:10.156Z,586.00
2023-11-07T03:16:10.045Z,585.00
2023-11-07T03:17:10.093Z,582.00
2023-11-07T03:18:10.112Z,584.00
2023-11-07T03:19:10.181Z,584.00
2023-11-07T03:20:09.947Z,586.00
2023-11-07T03:21:10.008Z,585.00
2023-11-07T03:22:09.999Z,586.00
2023-11-07T03:23:10.030Z,587.00
2023-11-07T03:24:10.010Z,588.00
2023-11-07T03:25:09.984Z,588.00
2023-11-07T03:26:09.875Z,590.00
2023-11-07T03:27:09.953Z,594.00
2023-11-07T03:28:09.840Z,593.00
2023-11-07T03:29:09.864Z,593.00
2023-11-07T03:30:09.849Z,589.00
2023-11-07T03:31:09.914Z,587.00
2023-11-07T03:32:09.792Z,592.00
2023-11-07T03:33:10.947Z,592.00
2023-11-07T03:34:09.801Z,592.00
2023-11-07T03:35:09.805Z,591.00
2023-11-07T03:36:09.793Z,591.00
2023-11-07T03:37:09.778Z,591.00
2023-11-07T03:38:09.707Z,593.00
2023-11-07T03:39:09.824Z,594.00
2023-11-07T03:40:09.697Z,596.00
2023-11-07T03:41:09.763Z,595.00
2023-11-07T03:42:09.710Z,597.00
2023-11-07T03:43:11.828Z,598.00
2023-11-07T03:44:09.636Z,595.00
2023-11-07T03:45:09.802Z,596.00
2023-11-07T03:46:09.622Z,596.00
2023-11-07T03:47:09.695Z,597.00
2023-11-07T03:48:09.651Z,597.00
2023-11-07T03:49:09.794Z,597.00
2023-11-07T03:50:09.546Z,595.00
2023-11-07T03:51:09.581Z,592.00
2023-11-07T03:52:09.517Z,593.00
2023-11-07T03:53:09.651Z,592.00
2023-11-07T03:54:09.583Z,593.00
2023-11-07T03:55:09.594Z,594.00
2023-11-07T03:56:09.465Z,593.00
2023-11-07T03:57:09.535Z,592.00
2023-11-07T03:58:09.444Z,593.00
2023-11-07T03:59:09.489Z,592.00
2023-11-07T04:00:09.462Z,594.00
2023-11-07T04:01:09.433Z,593.00
2023-11-07T04:02:09.392Z,592.00
2023-11-07T04:03:09.536Z,592.00
2023-11-07T04:04:09.442Z,592.00
2023-11-07T04:05:09.452Z,588.00
2023-11-07T04:06:09.630Z,587.00
2023-11-07T04:07:09.399Z,589.00
2023-11-07T04:08:09.316Z,589.00
2023-11-07T04:09:09.422Z,588.00
2023-11-07T04:10:09.271Z,587.00
2023-11-07T04:11:09.370Z,585.00
2023-11-07T04:12:09.281Z,588.00
2023-11-07T04:13:09.318Z,591.00
2023-11-07T04:14:09.255Z,587.00
2023-11-07T04:15:09.255Z,587.00
2023-11-07T04:16:09.210Z,581.00
2023-11-07T04:17:09.313Z,582.00
2023-11-07T04:18:09.263Z,586.00
2023-11-07T04:19:09.466Z,586.00
2023-11-07T04:20:09.152Z,587.00
2023-11-07T04:21:09.257Z,591.00
2023-11-07T04:22:09.129Z,592.00
2023-11-07T04:23:09.233Z,593.00
2023-11-07T04:24:09.191Z,591.00
2023-11-07T04:25:09.121Z,592.00
2023-11-07T04:26:09.091Z,589.00
2023-11-07T04:27:09.200Z,588.00
2023-11-07T04:28:09.046Z,589.00
2023-11-07T04:29:09.084Z,588.00
2023-11-07T04:30:09.203Z,587.00
2023-11-07T04:31:09.238Z,588.00
2023-11-07T04:32:09.035Z,587.00
2023-11-07T04:33:09.227Z,586.00
2023-11-07T04:34:08.964Z,587.00
2023-11-07T04:35:09.027Z,588.00
2023-11-07T04:36:09.036Z,588.00
2023-11-07T04:37:09.078Z,590.00
2023-11-07T04:38:08.917Z,595.00
2023-11-07T04:39:09.176Z,595.00
2023-11-07T04:40:08.897Z,593.00
2023-11-07T04:41:08.962Z,593.00
2023-11-07T04:42:08.897Z,590.00
2023-11-07T04:43:08.991Z,593.00
2023-11-07T04:44:08.901Z,591.00
2023-11-07T04:45:08.888Z,588.00
2023-11-07T04:46:08.801Z,587.00
2023-11-07T04:47:08.901Z,586.00
2023-11-07T04:48:08.926Z,586.00
2023-11-07T04:49:09.372Z,585.00
2023-11-07T04:50:08.754Z,586.00
2023-11-07T04:51:08.901Z,588.00
2023-11-07T04:52:08.723Z,587.00
2023-11-07T04:53:08.886Z,589.00
2023-11-07T04:54:08.719Z,590.00
2023-11-07T04:55:08.753Z,591.00
2023-11-07T04:56:08.674Z,590.00
2023-11-07T04:57:29.711Z,587.00
2023-11-07T04:58:08.645Z,586.00
2023-11-07T04:59:08.655Z,585.00
2023-11-07T05:00:08.683Z,585.00
2023-11-07T05:01:08.608Z,590.00
2023-11-07T05:02:08.652Z,591.00
2023-11-07T05:03:08.753Z,593.00
2023-11-07T05:04:08.793Z,593.00
2023-11-07T05:05:08.576Z,592.00
2023-11-07T05:06:08.708Z,591.00
2023-11-07T05:07:08.525Z,589.00
2023-11-07T05:08:08.609Z,590.00
2023-11-07T05:09:08.528Z,588.00
2023-11-07T05:10:08.514Z,590.00
2023-11-07T05:11:08.669Z,589.00
2023-11-07T05:12:08.576Z,589.00
2023-11-07T05:13:08.491Z,589.00
2023-11-07T05:14:08.545Z,588.00
2023-11-07T05:15:08.670Z,590.00
2023-11-07T05:16:08.461Z,594.00
2023-11-07T05:17:08.417Z,594.00
2023-11-07T05:18:08.904Z,592.00
2023-11-07T05:19:08.468Z,592.00
2023-11-07T05:20:08.400Z,591.00
2023-11-07T05:21:08.383Z,592.00
2023-11-07T05:22:08.395Z,592.00
2023-11-07T05:23:08.363Z,593.00
2023-11-07T05:24:08.459Z,592.00
2023-11-07T05:25:08.440Z,591.00
2023-11-07T05:26:09.360Z,586.00
2023-11-07T05:27:08.287Z,585.00
2023-11-07T05:28:08.412Z,585.00
2023-11-07T05:29:08.264Z,587.00
2023-11-07T05:30:08.322Z,590.00
2023-11-07T05:31:08.285Z,594.00
2023-11-07T05:32:08.296Z,596.00
2023-11-07T05:33:08.410Z,596.00
2023-11-07T05:34:08.455Z,596.00
2023-11-07T05:35:08.355Z,594.00
2023-11-07T05:36:09.266Z,595.00
2023-11-07T05:37:08.151Z,594.00
2023-11-07T05:38:08.247Z,591.00
2023-11-07T05:39:08.275Z,587.00
2023-11-07T05:40:08.133Z,585.00
2023-11-07T05:41:08.116Z,583.00
2023-11-07T05:42:08.295Z,584.00
2023-11-07T05:43:08.075Z,588.00
2023-11-07T05:44:08.169Z,588.00
2023-11-07T05:45:08.072Z,586.00
2023-11-07T05:46:08.081Z,583.00
2023-11-07T05:47:08.168Z,585.00
2023-11-07T05:48:08.163Z,582.00
2023-11-07T05:49:08.089Z,581.00
2023-11-07T05:50:07.992Z,579.00
2023-11-07T05:51:08.106Z,583.00
2023-11-07T05:52:08.014Z,583.00
2023-11-07T05:53:07.950Z,583.00
2023-11-07T05:54:08.045Z,581.00
2023-11-07T05:55:07.899Z,577.00
2023-11-07T05:56:07.937Z,576.00
2023-11-07T05:57:09.126Z,579.00
2023-11-07T05:58:12.145Z,578.00
2023-11-07T05:59:11.700Z,580.00
2023-11-07T06:00:11.157Z,580.00
2023-11-07T06:01:12.225Z,583.00
2023-11-07T06:02:10.367Z,583.00
2023-11-07T06:03:09.647Z,583.00
2023-11-07T06:04:09.374Z,583.00
2023-11-07T06:05:17.471Z,582.00
2023-11-07T06:06:21.082Z,581.00
2023-11-07T06:07:12.868Z,583.00
2023-11-07T06:08:17.783Z,582.00
2023-11-07T06:09:10.645Z,581.00
2023-11-07T06:10:09.135Z,581.00
2023-11-07T06:11:16.720Z,580.00
2023-11-07T06:12:09.348Z,581.00
2023-11-07T06:13:07.734Z,583.00
2023-11-07T06:14:07.638Z,583.00
2023-11-07T06:15:07.678Z,586.00
2023-11-07T06:16:07.605Z,586.00
2023-11-07T06:17:08.649Z,585.00
2023-11-07T06:18:07.738Z,583.00
2023-11-07T06:19:07.800Z,583.00
2023-11-07T06:20:07.603Z,584.00
2023-11-07T06:21:07.618Z,584.00
2023-11-07T06:22:07.797Z,586.00
2023-11-07T06:23:07.563Z,585.00
2023-11-07T06:24:07.548Z,585.00
2023-11-07T06:25:07.516Z,583.00
2023-11-07T06:26:07.480Z,585.00
2023-11-07T06:27:07.528Z,583.00
2023-11-07T06:28:07.584Z,585.00
2023-11-07T06:29:07.500Z,585.00
2023-11-07T06:30:07.435Z,584.00
2023-11-07T06:31:07.458Z,583.00
2023-11-07T06:32:07.391Z,583.00
2023-11-07T06:33:07.504Z,583.00
2023-11-07T06:34:07.429Z,580.00
2023-11-07T06:35:08.520Z,580.00
2023-11-07T06:36:07.345Z,580.00
2023-11-07T06:37:07.423Z,578.00
2023-11-07T06:38:07.302Z,575.00
2023-11-07T06:39:07.561Z,579.00
2023-11-07T06:40:07.296Z,579.00
2023-11-07T06:41:07.388Z,580.00
2023-11-07T06:42:07.300Z,581.00
2023-11-07T06:43:07.341Z,579.00
2023-11-07T06:44:07.227Z,584.00
2023-11-07T06:45:07.287Z,583.00
2023-11-07T06:46:07.204Z,584.00
2023-11-07T06:47:07.329Z,584.00
2023-11-07T06:48:07.313Z,583.00
2023-11-07T06:49:07.409Z,584.00
2023-11-07T06:50:07.163Z,583.00
2023-11-07T06:51:07.216Z,583.00
2023-11-07T06:52:07.141Z,582.00
2023-11-07T06:53:07.148Z,582.00
2023-11-07T06:54:07.161Z,581.00
2023-11-07T06:55:07.139Z,583.00
2023-11-07T06:56:07.067Z,585.00
2023-11-07T06:57:07.186Z,586.00
2023-11-07T06:58:07.046Z,586.00
2023-11-07T06:59:07.109Z,585.00
2023-11-07T07:00:09.073Z,585.00
2023-11-07T07:01:07.102Z,584.00
2023-11-07T07:02:07.039Z,586.00
2023-11-07T07:03:07.245Z,585.00
2023-11-07T07:04:07.149Z,585.00
2023-11-07T07:05:07.172Z,584.00
2023-11-07T07:06:07.055Z,584.00
2023-11-07T07:07:07.141Z,584.00
2023-11-07T07:08:06.944Z,583.00
2023-11-07T07:09:07.090Z,584.00
2023-11-07T07:10:07.059Z,581.00
2023-11-07T07:11:07.082Z,581.00
2023-11-07T07:12:07.040Z,583.00
2023-11-07T07:13:07.057Z,546.00
2023-11-07T07:14:06.970Z,547.00
2023-11-07T07:15:07.024Z,547.00
2023-11-07T07:16:06.868Z,545.00
2023-11-07T07:17:07.052Z,545.00
2023-11-07T07:18:06.997Z,541.00
2023-11-07T07:19:28.041Z,541.00
2023-11-07T07:20:06.803Z,543.00
2023-11-07T07:21:06.891Z,543.00
2023-11-07T07:22:06.770Z,543.00
2023-11-07T07:23:06.886Z,542.00
2023-11-07T07:24:06.728Z,543.00
2023-11-07T07:25:08.964Z,542.00
2023-11-07T07:26:06.718Z,541.00
2023-11-07T07:27:06.934Z,541.00
2023-11-07T07:28:06.687Z,541.00
2023-11-07T07:29:06.762Z,540.00
2023-11-07T07:30:06.673Z,541.00
2023-11-07T07:31:08.870Z,540.00
2023-11-07T07:32:06.647Z,541.00
2023-11-07T07:33:06.995Z,542.00
2023-11-07T07:34:06.669Z,544.00
2023-11-07T07:35:06.785Z,544.00
2023-11-07T07:36:06.669Z,546.00
2023-11-07T07:37:06.660Z,546.00
2023-11-07T07:38:06.536Z,547.00
2023-11-07T07:39:06.619Z,548.00
2023-11-07T07:40:06.512Z,547.00
2023-11-07T07:41:06.685Z,544.00
2023-11-07T07:42:06.566Z,545.00
2023-11-07T07:43:06.576Z,545.00
2023-11-07T07:44:06.478Z,545.00
2023-11-07T07:45:06.612Z,544.00
2023-11-07T07:46:06.454Z,543.00
2023-11-07T07:47:06.476Z,545.00
2023-11-07T07:48:06.547Z,543.00
2023-11-07T07:49:27.499Z,544.00
2023-11-07T07:50:06.455Z,540.00
2023-11-07T07:51:06.400Z,542.00
2023-11-07T07:52:06.496Z,541.00
2023-11-07T07:53:06.461Z,539.00
2023-11-07T07:54:12.501Z,538.00
2023-11-07T07:55:13.432Z,538.00
2023-11-07T07:56:07.344Z,539.00
2023-11-07T07:57:06.418Z,538.00
2023-11-07T07:58:06.270Z,536.00
2023-11-07T07:59:09.687Z,534.00
2023-11-07T08:00:06.290Z,533.00
2023-11-07T08:01:06.371Z,530.00
2023-11-07T08:02:06.261Z,529.00
2023-11-07T08:03:06.837Z,528.00
2023-11-07T08:04:06.260Z,526.00
2023-11-07T08:05:06.329Z,525.00
2023-11-07T08:06:06.195Z,525.00
2023-11-07T08:07:06.393Z,524.00
2023-11-07T08:08:06.156Z,526.00
2023-11-07T08:09:06.275Z,525.00
2023-11-07T08:10:06.152Z,525.00
2023-11-07T08:11:08.361Z,528.00
2023-11-07T08:12:06.231Z,526.00
2023-11-07T08:13:06.314Z,525.00
2023-11-07T08:14:06.067Z,525.00
2023-11-07T08:15:06.136Z,523.00
2023-11-07T08:16:06.315Z,522.00
2023-11-07T08:17:06.116Z,518.00
2023-11-07T08:18:06.197Z,519.00
2023-11-07T08:19:06.073Z,517.00
2023-11-07T08:20:05.983Z,515.00
2023-11-07T08:21:06.064Z,510.00
2023-11-07T08:22:05.966Z,508.00
2023-11-07T08:23:06.569Z,504.00
2023-11-07T08:24:05.977Z,496.00
2023-11-07T08:25:06.029Z,493.00
2023-11-07T08:26:05.903Z,494.00
2023-11-07T08:27:06.083Z,488.00
2023-11-07T08:28:05.893Z,485.00
2023-11-07T08:29:05.966Z,481.00
2023-11-07T08:30:05.892Z,479.00
2023-11-07T08:31:06.008Z,474.00
2023-11-07T08:32:05.817Z,472.00
2023-11-07T08:33:06.032Z,470.00
2023-11-07T08:34:05.972Z,470.00
2023-11-07T08:35:05.874Z,470.00
2023-11-07T08:36:05.817Z,469.00
2023-11-07T08:37:09.194Z,470.00
2023-11-07T08:38:06.755Z,468.00
2023-11-07T08:39:05.842Z,468.00
2023-11-07T08:40:05.743Z,467.00
2023-11-07T08:41:26.867Z,464.00
2023-11-07T08:42:05.846Z,466.00
2023-11-07T08:43:05.832Z,462.00
2023-11-07T08:44:05.663Z,461.00
2023-11-07T08:45:06.845Z,464.00
2023-11-07T08:46:05.668Z,464.00
2023-11-07T08:47:07.823Z,466.00
2023-11-07T08:48:05.746Z,467.00
2023-11-07T08:49:05.751Z,467.00
2023-11-07T08:50:05.602Z,466.00
2023-11-07T08:51:06.695Z,466.00
2023-11-07T08:52:05.601Z,465.00
2023-11-07T08:53:05.688Z,464.00
2023-11-07T08:54:05.662Z,463.00
2023-11-07T08:55:05.613Z,465.00
2023-11-07T08:56:05.514Z,465.00
2023-11-07T08:57:05.736Z,463.00
2023-11-07T08:58:05.504Z,462.00
2023-11-07T08:59:05.621Z,461.00
2023-11-07T09:00:05.492Z,464.00
2023-11-07T09:01:05.563Z,465.00
2023-11-07T09:02:05.478Z,466.00
2023-11-07T09:03:07.647Z,465.00
2023-11-07T09:04:05.480Z,465.00
2023-11-07T09:05:05.581Z,462.00
2023-11-07T09:06:05.437Z,463.00
2023-11-07T09:07:05.559Z,463.00
2023-11-07T09:08:05.353Z,464.00
2023-11-07T09:09:07.590Z,464.00
2023-11-07T09:10:05.334Z,463.00
2023-11-07T09:11:05.406Z,460.00
2023-11-07T09:12:05.318Z,460.00
2023-11-07T09:13:05.367Z,460.00
2023-11-07T09:14:05.246Z,461.00
2023-11-07T09:15:06.452Z,463.00
2023-11-07T09:16:05.245Z,461.00
2023-11-07T09:17:05.430Z,461.00
2023-11-07T09:18:05.267Z,460.00
2023-11-07T09:19:05.363Z,460.00
2023-11-07T09:20:05.172Z,460.00
2023-11-07T09:21:07.443Z,459.00
2023-11-07T09:22:05.201Z,458.00
2023-11-07T09:23:05.223Z,458.00
2023-11-07T09:24:05.204Z,455.00
2023-11-07T09:25:05.244Z,456.00
2023-11-07T09:26:05.122Z,456.00
2023-11-07T09:27:05.336Z,458.00
2023-11-07T09:28:05.111Z,458.00
2023-11-07T09:29:05.139Z,455.00
2023-11-07T09:30:05.109Z,455.00
2023-11-07T09:31:05.152Z,456.00
2023-11-07T09:32:05.033Z,458.00
2023-11-07T09:33:29.361Z,457.00
2023-11-07T09:34:05.139Z,455.00
2023-11-07T09:35:04.996Z,452.00
2023-11-07T09:36:05.131Z,452.00
2023-11-07T09:37:04.961Z,452.00
2023-11-07T09:38:06.194Z,452.00
2023-11-07T09:39:04.998Z,455.00
2023-11-07T09:40:05.119Z,455.00
2023-11-07T09:41:04.897Z,454.00
2023-11-07T09:42:05.049Z,456.00
2023-11-07T09:43:04.885Z,458.00
2023-11-07T09:44:05.087Z,459.00
2023-11-07T09:45:04.911Z,459.00
2023-11-07T09:46:04.918Z,458.00
2023-11-07T09:47:04.833Z,456.00
2023-11-07T09:48:04.950Z,458.00
2023-11-07T09:49:04.902Z,458.00
2023-11-07T09:50:04.857Z,457.00
2023-11-07T09:51:04.830Z,456.00
2023-11-07T09:52:04.874Z,455.00
2023-11-07T09:53:04.733Z,456.00
2023-11-07T09:54:05.761Z,456.00
2023-11-07T09:55:04.710Z,457.00
2023-11-07T09:56:04.858Z,456.00
2023-11-07T09:57:04.763Z,457.00
2023-11-07T09:58:12.492Z,455.00
2023-11-07T09:59:05.676Z,455.00
2023-11-07T10:00:04.802Z,452.00
2023-11-07T10:01:04.628Z,452.00
2023-11-07T10:02:27.793Z,451.00
2023-11-07T10:03:04.797Z,452.00
2023-11-07T10:04:04.900Z,454.00
2023-11-07T10:05:04.811Z,453.00
2023-11-07T10:06:04.774Z,455.00
2023-11-07T10:07:04.597Z,453.00
2023-11-07T10:08:05.743Z,453.00
2023-11-07T10:09:04.558Z,454.00
2023-11-07T10:10:04.636Z,453.00
2023-11-07T10:11:04.493Z,454.00
2023-11-07T10:12:04.661Z,455.00
2023-11-07T10:13:04.471Z,454.00
2023-11-07T10:14:06.588Z,452.00
2023-11-07T10:15:04.474Z,451.00
2023-11-07T10:16:15.875Z,452.00
2023-11-07T10:17:05.717Z,451.00
2023-11-07T10:18:04.491Z,454.00
2023-11-07T10:19:07.030Z,452.00
2023-11-07T10:20:04.439Z,453.00
2023-11-07T10:21:04.551Z,454.00
2023-11-07T10:22:04.360Z,453.00
2023-11-07T10:23:04.385Z,450.00
2023-11-07T10:24:04.458Z,449.00
2023-11-07T10:25:04.456Z,451.00
2023-11-07T10:26:04.336Z,451.00
2023-11-07T10:27:04.402Z,450.00
2023-11-07T10:28:04.284Z,451.00
2023-11-07T10:29:04.385Z,454.00
2023-11-07T10:30:04.294Z,455.00
2023-11-07T10:31:05.371Z,451.00
2023-11-07T10:32:04.627Z,450.00
2023-11-07T10:33:04.384Z,453.00
2023-11-07T10:34:04.240Z,454.00
2023-11-07T10:35:04.301Z,453.00
2023-11-07T10:36:04.609Z,455.00
2023-11-07T10:37:04.231Z,456.00
2023-11-07T10:38:04.177Z,458.00
2023-11-07T10:39:04.288Z,458.00
2023-11-07T10:40:04.116Z,459.00
2023-11-07T10:41:04.317Z,460.00
2023-11-07T10:42:04.087Z,462.00
2023-11-07T10:43:04.109Z,464.00
2023-11-07T10:44:04.075Z,462.00
2023-11-07T10:45:04.217Z,462.00
2023-11-07T10:46:04.024Z,462.00
2023-11-07T10:47:05.138Z,463.00
2023-11-07T10:48:04.180Z,464.00
2023-11-07T10:49:04.223Z,465.00
2023-11-07T10:50:04.002Z,467.00
2023-11-07T10:51:04.129Z,467.00
2023-11-07T10:52:04.036Z,467.00
2023-11-07T10:53:03.993Z,467.00
2023-11-07T10:54:04.008Z,465.00
2023-11-07T10:55:04.066Z,463.00
2023-11-07T10:56:03.921Z,464.00
2023-11-07T10:57:04.058Z,464.00
2023-11-07T10:58:03.871Z,465.00
2023-11-07T10:59:05.065Z,463.00
2023-11-07T11:00:04.001Z,464.00
2023-11-07T11:01:03.964Z,463.00
2023-11-07T11:02:03.831Z,465.00
2023-11-07T11:03:04.038Z,466.00
2023-11-07T11:04:03.903Z,464.00
2023-11-07T11:05:05.942Z,462.00
2023-11-07T11:06:04.064Z,462.00
2023-11-07T11:07:04.008Z,462.00
2023-11-07T11:08:03.744Z,462.00
2023-11-07T11:09:03.915Z,464.00
2023-11-07T11:10:03.717Z,461.00
2023-11-07T11:11:04.768Z,462.00
2023-11-07T11:12:03.700Z,461.00
2023-11-07T11:13:03.737Z,460.00
2023-11-07T11:14:03.688Z,464.00
2023-11-07T11:15:03.820Z,465.00
2023-11-07T11:16:03.606Z,464.00
2023-11-07T11:17:03.750Z,466.00
2023-11-07T11:18:03.682Z,465.00
2023-11-07T11:19:04.047Z,466.00
2023-11-07T11:20:03.703Z,467.00
2023-11-07T11:21:24.729Z,469.00
2023-11-07T11:22:03.533Z,467.00
2023-11-07T11:23:03.582Z,465.00
2023-11-07T11:24:03.552Z,465.00
2023-11-07T11:25:04.586Z,465.00
2023-11-07T11:26:03.496Z,466.00
2023-11-07T11:27:03.620Z,462.00
2023-11-07T11:28:03.453Z,462.00
2023-11-07T11:29:24.654Z,463.00
2023-11-07T11:30:03.479Z,465.00
2023-11-07T11:31:03.490Z,466.00
2023-11-07T11:32:03.419Z,466.00
2023-11-07T11:33:03.667Z,464.00
2023-11-07T11:34:03.457Z,463.00
2023-11-07T11:35:03.545Z,464.00
2023-11-07T11:36:03.396Z,463.00
2023-11-07T11:37:03.493Z,465.00
2023-11-07T11:38:03.331Z,467.00
2023-11-07T11:39:03.553Z,468.00
2023-11-07T11:40:03.340Z,467.00
2023-11-07T11:41:03.373Z,466.00
2023-11-07T11:42:03.338Z,464.00
2023-11-07T11:43:03.311Z,465.00
2023-11-07T11:44:03.267Z,464.00
2023-11-07T11:45:03.539Z,462.00
2023-11-07T11:46:03.234Z,460.00
2023-11-07T11:47:03.267Z,461.00
2023-11-07T11:48:03.440Z,458.00
2023-11-07T11:49:03.419Z,459.00
2023-11-07T11:50:03.206Z,460.00
2023-11-07T11:51:04.295Z,461.00
2023-11-07T11:52:03.116Z,460.00
2023-11-07T11:53:03.201Z,460.00
2023-11-07T11:54:03.235Z,461.00
2023-11-07T11:55:03.324Z,460.00
2023-11-07T11:56:03.094Z,461.00
2023-11-07T11:57:24.133Z,461.00
2023-11-07T11:58:03.037Z,462.00
2023-11-07T11:59:03.221Z,461.00
2023-11-07T12:00:03.039Z,458.00
2023-11-07T12:01:03.098Z,457.00
2023-11-07T12:02:03.103Z,454.00
2023-11-07T12:03:03.265Z,452.00
2023-11-07T12:04:02.986Z,454.00
2023-11-07T12:05:02.983Z,456.00
2023-11-07T12:06:03.089Z,458.00
2023-11-07T12:07:03.171Z,457.00
2023-11-07T12:08:02.943Z,460.00
2023-11-07T12:09:03.077Z,461.00
2023-11-07T12:10:02.878Z,460.00
2023-11-07T12:11:02.992Z,461.00
2023-11-07T12:12:02.899Z,458.00
2023-11-07T12:13:02.936Z,458.00
2023-11-07T12:14:02.861Z,458.00
2023-11-07T12:15:02.874Z,459.00
2023-11-07T12:16:02.808Z,460.00
2023-11-07T12:17:02.880Z,460.00
2023-11-07T12:18:02.915Z,459.00
2023-11-07T12:19:02.977Z,458.00
2023-11-07T12:20:02.775Z,456.00
2023-11-07T12:21:05.005Z,454.00
2023-11-07T12:22:02.749Z,455.00
2023-11-07T12:23:02.786Z,454.00
2023-11-07T12:24:03.223Z,455.00
2023-11-07T12:25:02.720Z,457.00
2023-11-07T12:26:02.696Z,458.00
2023-11-07T12:27:23.788Z,460.00
2023-11-07T12:28:02.675Z,460.00